sensor_id;sensor_type;location;lat;lon;timestamp;pressure;altitude;pressure_sealevel;temperature;humidity
67345;BME280;54230;52.402;6.276;2023-05-19T00:00:01;102809.99999999999;;;11.7;64.1
67345;BME280;54230;52.402;6.276;2023-05-19T00:05:00;102809.99999999999;;;11.7;64.1
67345;BME280;54230;52.402;6.276;2023-05-19T00:10:01;102800.0;;;11.6;64.3
67345;BME280;54230;52.402;6.276;2023-05-19T00:15:01;102809.99999999999;;;11.5;64.7
67345;BME280;54230;52.402;6.276;2023-05-19T00:20:00;102809.99999999999;;;11.4;64.9
67345;BME280;54230;52.402;6.276;2023-05-19T00:25:00;102809.99999999999;;;11.3;65.7
67345;BME280;54230;52.402;6.276;2023-05-19T00:30:00;102800.0;;;11.3;65.3
67345;BME280;54230;52.402;6.276;2023-05-19T00:35:00;102800.0;;;11.3;65.8
67345;BME280;54230;52.402;6.276;2023-05-19T00:40:00;102790.00000000001;;;11.3;65.7
67345;BME280;54230;52.402;6.276;2023-05-19T00:45:00;102790.00000000001;;;11.3;65.7
67345;BME280;54230;52.402;6.276;2023-05-19T00:50:00;102790.00000000001;;;11.2;66.3
67345;BME280;54230;52.402;6.276;2023-05-19T00:55:00;102780.0;;;11.2;66.4
67345;BME280;54230;52.402;6.276;2023-05-19T01:00:00;102780.0;;;11.2;66.6
67345;BME280;54230;52.402;6.276;2023-05-19T01:05:00;102770.0;;;11.2;66.9
67345;BME280;54230;52.402;6.276;2023-05-19T01:10:00;102770.0;;;11.1;67.2
67345;BME280;54230;52.402;6.276;2023-05-19T01:15:00;102770.0;;;11.1;67.5
67345;BME280;54230;52.402;6.276;2023-05-19T01:20:06;102759.99999999999;;;11.0;67.2
67345;BME280;54230;52.402;6.276;2023-05-19T01:25:10;102770.0;;;11.1;67.6
67345;BME280;54230;52.402;6.276;2023-05-19T01:35:01;102770.0;;;11.1;68.1
67345;BME280;54230;52.402;6.276;2023-05-19T01:40:00;102770.0;;;11.0;68.4
67345;BME280;54230;52.402;6.276;2023-05-19T01:45:01;102770.0;;;10.9;68.7
67345;BME280;54230;52.402;6.276;2023-05-19T01:50:00;102770.0;;;10.9;68.9
67345;BME280;54230;52.402;6.276;2023-05-19T01:55:00;102770.0;;;10.9;68.7
67345;BME280;54230;52.402;6.276;2023-05-19T02:00:06;102759.99999999999;;;10.8;68.3
67345;BME280;54230;52.402;6.276;2023-05-19T02:05:08;102759.99999999999;;;10.7;68.9
67345;BME280;54230;52.402;6.276;2023-05-19T02:10:04;102759.99999999999;;;10.7;68.3
67345;BME280;54230;52.402;6.276;2023-05-19T02:15:03;102750.0;;;10.4;68.0
67345;BME280;54230;52.402;6.276;2023-05-19T02:20:00;102750.0;;;10.4;69.3
67345;BME280;54230;52.402;6.276;2023-05-19T02:25:00;102750.0;;;10.4;69.6
67345;BME280;54230;52.402;6.276;2023-05-19T02:30:00;102750.0;;;10.4;70.4
67345;BME280;54230;52.402;6.276;2023-05-19T02:35:00;102740.00000000001;;;10.5;70.2
67345;BME280;54230;52.402;6.276;2023-05-19T02:40:00;102750.0;;;10.6;70.4
67345;BME280;54230;52.402;6.276;2023-05-19T02:45:00;102740.00000000001;;;10.6;70.5
67345;BME280;54230;52.402;6.276;2023-05-19T02:50:00;102740.00000000001;;;10.5;70.3
67345;BME280;54230;52.402;6.276;2023-05-19T02:55:00;102740.00000000001;;;10.4;70.2
67345;BME280;54230;52.402;6.276;2023-05-19T03:00:00;102730.0;;;10.4;70.4
67345;BME280;54230;52.402;6.276;2023-05-19T03:05:00;102730.0;;;10.4;70.7
67345;BME280;54230;52.402;6.276;2023-05-19T03:10:00;102730.0;;;10.3;70.4
67345;BME280;54230;52.402;6.276;2023-05-19T03:15:00;102730.0;;;10.3;70.7
67345;BME280;54230;52.402;6.276;2023-05-19T03:20:00;102730.0;;;10.3;71.1
67345;BME280;54230;52.402;6.276;2023-05-19T03:25:00;102720.0;;;10.3;70.6
67345;BME280;54230;52.402;6.276;2023-05-19T03:30:00;102730.0;;;10.2;71.0
67345;BME280;54230;52.402;6.276;2023-05-19T03:35:00;102730.0;;;10.3;71.1
67345;BME280;54230;52.402;6.276;2023-05-19T03:40:00;102730.0;;;10.2;70.9
67345;BME280;54230;52.402;6.276;2023-05-19T03:45:00;102730.0;;;10.1;71.0
67345;BME280;54230;52.402;6.276;2023-05-19T03:50:00;102740.00000000001;;;10.0;71.0
67345;BME280;54230;52.402;6.276;2023-05-19T03:55:00;102740.00000000001;;;9.9;71.2
67345;BME280;54230;52.402;6.276;2023-05-19T04:00:00;102740.00000000001;;;9.8;71.8
67345;BME280;54230;52.402;6.276;2023-05-19T04:05:00;102740.00000000001;;;9.9;72.3
67345;BME280;54230;52.402;6.276;2023-05-19T04:10:03;102740.00000000001;;;9.8;72.1
67345;BME280;54230;52.402;6.276;2023-05-19T04:15:00;102750.0;;;9.8;72.4
67345;BME280;54230;52.402;6.276;2023-05-19T04:20:00;102750.0;;;10.1;73.4
67345;BME280;54230;52.402;6.276;2023-05-19T04:25:00;102750.0;;;10.2;73.2
67345;BME280;54230;52.402;6.276;2023-05-19T04:30:00;102750.0;;;10.3;72.6
67345;BME280;54230;52.402;6.276;2023-05-19T04:35:00;102750.0;;;10.3;72.3
67345;BME280;54230;52.402;6.276;2023-05-19T04:40:00;102750.0;;;10.2;72.4
67345;BME280;54230;52.402;6.276;2023-05-19T04:45:00;102750.0;;;10.2;72.8
67345;BME280;54230;52.402;6.276;2023-05-19T04:50:00;102750.0;;;10.2;73.0
67345;BME280;54230;52.402;6.276;2023-05-19T04:55:00;102740.00000000001;;;10.3;73.3
67345;BME280;54230;52.402;6.276;2023-05-19T05:00:00;102740.00000000001;;;10.4;73.3
67345;BME280;54230;52.402;6.276;2023-05-19T05:05:00;102740.00000000001;;;10.5;73.5
67345;BME280;54230;52.402;6.276;2023-05-19T05:10:00;102740.00000000001;;;10.7;73.5
67345;BME280;54230;52.402;6.276;2023-05-19T05:15:00;102750.0;;;10.8;73.6
67345;BME280;54230;52.402;6.276;2023-05-19T05:20:00;102750.0;;;11.0;73.3
67345;BME280;54230;52.402;6.276;2023-05-19T05:25:01;102750.0;;;11.1;73.4
67345;BME280;54230;52.402;6.276;2023-05-19T05:30:00;102750.0;;;11.4;72.5
67345;BME280;54230;52.402;6.276;2023-05-19T05:35:00;102750.0;;;11.5;72.2
67345;BME280;54230;52.402;6.276;2023-05-19T05:40:00;102750.0;;;11.5;72.0
67345;BME280;54230;52.402;6.276;2023-05-19T05:45:00;102750.0;;;11.6;71.7
67345;BME280;54230;52.402;6.276;2023-05-19T05:50:01;102750.0;;;11.8;71.5
67345;BME280;54230;52.402;6.276;2023-05-19T05:55:01;102750.0;;;12.0;70.6
67345;BME280;54230;52.402;6.276;2023-05-19T06:00:00;102750.0;;;12.1;70.2
67345;BME280;54230;52.402;6.276;2023-05-19T06:05:00;102750.0;;;12.4;69.5
67345;BME280;54230;52.402;6.276;2023-05-19T06:10:00;102759.99999999999;;;12.6;68.7
67345;BME280;54230;52.402;6.276;2023-05-19T06:15:01;102759.99999999999;;;12.7;68.3
67345;BME280;54230;52.402;6.276;2023-05-19T06:20:00;102759.99999999999;;;12.8;68.0
67345;BME280;54230;52.402;6.276;2023-05-19T06:25:00;102759.99999999999;;;13.0;67.7
67345;BME280;54230;52.402;6.276;2023-05-19T06:30:00;102759.99999999999;;;13.3;66.8
67345;BME280;54230;52.402;6.276;2023-05-19T06:35:00;102770.0;;;13.5;66.0
67345;BME280;54230;52.402;6.276;2023-05-19T06:40:00;102770.0;;;13.6;65.3
67345;BME280;54230;52.402;6.276;2023-05-19T06:45:00;102770.0;;;13.8;64.0
67345;BME280;54230;52.402;6.276;2023-05-19T06:50:00;102759.99999999999;;;13.9;63.2
67345;BME280;54230;52.402;6.276;2023-05-19T06:55:00;102759.99999999999;;;13.9;62.6
67345;BME280;54230;52.402;6.276;2023-05-19T07:00:00;102759.99999999999;;;14.0;63.2
67345;BME280;54230;52.402;6.276;2023-05-19T07:05:00;102759.99999999999;;;14.1;62.0
67345;BME280;54230;52.402;6.276;2023-05-19T07:10:00;102759.99999999999;;;14.1;61.4
67345;BME280;54230;52.402;6.276;2023-05-19T07:15:00;102759.99999999999;;;14.3;61.0
67345;BME280;54230;52.402;6.276;2023-05-19T07:20:00;102759.99999999999;;;14.6;61.1
67345;BME280;54230;52.402;6.276;2023-05-19T07:25:00;102759.99999999999;;;14.8;59.9
67345;BME280;54230;52.402;6.276;2023-05-19T07:30:00;102750.0;;;15.1;59.2
67345;BME280;54230;52.402;6.276;2023-05-19T07:35:00;102759.99999999999;;;15.4;58.8
67345;BME280;54230;52.402;6.276;2023-05-19T07:40:00;102759.99999999999;;;15.6;57.4
67345;BME280;54230;52.402;6.276;2023-05-19T07:45:00;102750.0;;;15.8;55.9
67345;BME280;54230;52.402;6.276;2023-05-19T07:50:00;102750.0;;;16.1;54.9
67345;BME280;54230;52.402;6.276;2023-05-19T07:55:00;102750.0;;;16.4;54.7
67345;BME280;54230;52.402;6.276;2023-05-19T08:00:00;102759.99999999999;;;16.6;53.2
67345;BME280;54230;52.402;6.276;2023-05-19T08:05:00;102750.0;;;16.9;51.5
67345;BME280;54230;52.402;6.276;2023-05-19T08:10:00;102750.0;;;17.0;49.8
67345;BME280;54230;52.402;6.276;2023-05-19T08:15:00;102750.0;;;17.1;48.8
67345;BME280;54230;52.402;6.276;2023-05-19T08:20:00;102740.00000000001;;;17.4;48.8
67345;BME280;54230;52.402;6.276;2023-05-19T08:25:00;102730.0;;;17.6;46.6
67345;BME280;54230;52.402;6.276;2023-05-19T08:30:00;102730.0;;;17.8;45.3
67345;BME280;54230;52.402;6.276;2023-05-19T08:35:00;102720.0;;;18.0;44.8
67345;BME280;54230;52.402;6.276;2023-05-19T08:40:00;102720.0;;;18.0;44.3
67345;BME280;54230;52.402;6.276;2023-05-19T08:45:01;102709.99999999999;;;18.1;44.3
67345;BME280;54230;52.402;6.276;2023-05-19T08:50:03;102700.0;;;18.1;42.9
67345;BME280;54230;52.402;6.276;2023-05-19T08:55:06;102690.00000000001;;;18.3;41.9
67345;BME280;54230;52.402;6.276;2023-05-19T09:00:01;102690.00000000001;;;18.4;41.2
67345;BME280;54230;52.402;6.276;2023-05-19T09:05:01;102680.0;;;18.4;41.2
67345;BME280;54230;52.402;6.276;2023-05-19T09:10:00;102690.00000000001;;;18.5;39.8
67345;BME280;54230;52.402;6.276;2023-05-19T09:15:01;102680.0;;;18.7;39.9
67345;BME280;54230;52.402;6.276;2023-05-19T09:20:00;102680.0;;;19.0;38.8
67345;BME280;54230;52.402;6.276;2023-05-19T09:25:00;102680.0;;;19.1;37.7
67345;BME280;54230;52.402;6.276;2023-05-19T09:30:06;102670.0;;;19.4;37.8
67345;BME280;54230;52.402;6.276;2023-05-19T09:35:01;102680.0;;;19.4;37.2
67345;BME280;54230;52.402;6.276;2023-05-19T09:40:00;102670.0;;;19.5;37.3
67345;BME280;54230;52.402;6.276;2023-05-19T09:45:00;102670.0;;;19.3;36.7
67345;BME280;54230;52.402;6.276;2023-05-19T09:50:00;102659.99999999999;;;19.3;36.7
67345;BME280;54230;52.402;6.276;2023-05-19T09:55:01;102659.99999999999;;;19.1;37.4
67345;BME280;54230;52.402;6.276;2023-05-19T10:00:02;102659.99999999999;;;19.5;36.8
67345;BME280;54230;52.402;6.276;2023-05-19T10:05:01;102659.99999999999;;;19.6;36.2
67345;BME280;54230;52.402;6.276;2023-05-19T10:10:00;102659.99999999999;;;19.7;36.2
67345;BME280;54230;52.402;6.276;2023-05-19T10:15:01;102659.99999999999;;;20.1;36.3
67345;BME280;54230;52.402;6.276;2023-05-19T10:20:01;102659.99999999999;;;20.4;35.7
67345;BME280;54230;52.402;6.276;2023-05-19T10:25:00;102650.0;;;20.5;34.9
67345;BME280;54230;52.402;6.276;2023-05-19T10:30:04;102630.0;;;20.4;35.2
67345;BME280;54230;52.402;6.276;2023-05-19T10:35:15;102630.0;;;20.5;35.5
67345;BME280;54230;52.402;6.276;2023-05-19T10:40:05;102620.0;;;20.5;34.9
67345;BME280;54230;52.402;6.276;2023-05-19T10:45:04;102620.0;;;20.3;34.5
67345;BME280;54230;52.402;6.276;2023-05-19T10:50:00;102609.99999999999;;;20.3;34.5
67345;BME280;54230;52.402;6.276;2023-05-19T10:55:00;102620.0;;;20.8;34.5
67345;BME280;54230;52.402;6.276;2023-05-19T11:00:02;102609.99999999999;;;21.0;33.3
67345;BME280;54230;52.402;6.276;2023-05-19T11:05:06;102620.0;;;21.1;33.3
67345;BME280;54230;52.402;6.276;2023-05-19T11:10:04;102609.99999999999;;;21.1;33.1
67345;BME280;54230;52.402;6.276;2023-05-19T11:15:00;102609.99999999999;;;21.3;32.9
67345;BME280;54230;52.402;6.276;2023-05-19T11:20:00;102609.99999999999;;;21.7;32.2
67345;BME280;54230;52.402;6.276;2023-05-19T11:25:00;102609.99999999999;;;21.9;32.7
67345;BME280;54230;52.402;6.276;2023-05-19T11:30:03;102609.99999999999;;;22.2;31.2
67345;BME280;54230;52.402;6.276;2023-05-19T11:35:01;102580.0;;;21.8;32.4
67345;BME280;54230;52.402;6.276;2023-05-19T11:40:01;102590.00000000001;;;22.0;32.3
67345;BME280;54230;52.402;6.276;2023-05-19T11:45:00;102590.00000000001;;;22.1;32.1
67345;BME280;54230;52.402;6.276;2023-05-19T11:50:00;102590.00000000001;;;21.7;32.0
67345;BME280;54230;52.402;6.276;2023-05-19T11:55:00;102580.0;;;22.2;32.1
67345;BME280;54230;52.402;6.276;2023-05-19T12:00:00;102580.0;;;22.5;31.6
67345;BME280;54230;52.402;6.276;2023-05-19T12:05:00;102570.0;;;22.7;30.7
67345;BME280;54230;52.402;6.276;2023-05-19T12:10:00;102570.0;;;22.7;30.2
67345;BME280;54230;52.402;6.276;2023-05-19T12:15:01;102580.0;;;22.5;30.8
67345;BME280;54230;52.402;6.276;2023-05-19T12:20:01;102570.0;;;22.3;31.1
67345;BME280;54230;52.402;6.276;2023-05-19T12:25:01;102559.99999999999;;;22.6;31.2
67345;BME280;54230;52.402;6.276;2023-05-19T12:30:02;102559.99999999999;;;22.9;30.6
67345;BME280;54230;52.402;6.276;2023-05-19T12:35:01;102550.0;;;22.5;30.7
67345;BME280;54230;52.402;6.276;2023-05-19T12:40:01;102550.0;;;22.9;30.5
67345;BME280;54230;52.402;6.276;2023-05-19T12:45:02;102550.0;;;22.7;30.7
67345;BME280;54230;52.402;6.276;2023-05-19T12:50:01;102550.0;;;22.9;29.9
67345;BME280;54230;52.402;6.276;2023-05-19T12:55:01;102540.00000000001;;;23.5;29.1
67345;BME280;54230;52.402;6.276;2023-05-19T13:00:01;102540.00000000001;;;24.0;29.0
67345;BME280;54230;52.402;6.276;2023-05-19T13:05:00;102540.00000000001;;;23.8;28.3
67345;BME280;54230;52.402;6.276;2023-05-19T13:10:01;102530.0;;;23.9;27.9
67345;BME280;54230;52.402;6.276;2023-05-19T13:15:00;102520.0;;;23.7;28.6
67345;BME280;54230;52.402;6.276;2023-05-19T13:20:00;102530.0;;;23.8;28.6
67345;BME280;54230;52.402;6.276;2023-05-19T13:25:00;102530.0;;;23.7;28.8
67345;BME280;54230;52.402;6.276;2023-05-19T13:30:00;102520.0;;;23.9;28.4
67345;BME280;54230;52.402;6.276;2023-05-19T13:35:00;102509.99999999999;;;24.6;27.4
67345;BME280;54230;52.402;6.276;2023-05-19T13:40:01;102500.0;;;25.2;26.3
67345;BME280;54230;52.402;6.276;2023-05-19T13:45:00;102500.0;;;25.8;27.0
67345;BME280;54230;52.402;6.276;2023-05-19T13:50:01;102500.0;;;25.1;27.4
67345;BME280;54230;52.402;6.276;2023-05-19T13:55:00;102500.0;;;24.7;27.7
67345;BME280;54230;52.402;6.276;2023-05-19T14:00:00;102500.0;;;25.4;26.8
67345;BME280;54230;52.402;6.276;2023-05-19T14:05:00;102500.0;;;26.5;25.4
67345;BME280;54230;52.402;6.276;2023-05-19T14:10:00;102490.00000000001;;;26.9;24.5
67345;BME280;54230;52.402;6.276;2023-05-19T14:15:00;102480.0;;;26.4;24.9
67345;BME280;54230;52.402;6.276;2023-05-19T14:20:00;102490.00000000001;;;26.1;25.0
67345;BME280;54230;52.402;6.276;2023-05-19T14:25:00;102490.00000000001;;;26.0;24.9
67345;BME280;54230;52.402;6.276;2023-05-19T14:30:00;102490.00000000001;;;25.8;24.9
67345;BME280;54230;52.402;6.276;2023-05-19T14:35:00;102480.0;;;25.8;24.9
67345;BME280;54230;52.402;6.276;2023-05-19T14:40:00;102470.0;;;26.1;25.2
67345;BME280;54230;52.402;6.276;2023-05-19T14:45:00;102470.0;;;26.4;24.6
67345;BME280;54230;52.402;6.276;2023-05-19T14:50:00;102459.99999999999;;;26.8;24.1
67345;BME280;54230;52.402;6.276;2023-05-19T14:55:00;102459.99999999999;;;26.5;24.5
67345;BME280;54230;52.402;6.276;2023-05-19T15:00:00;102450.0;;;26.2;25.3
67345;BME280;54230;52.402;6.276;2023-05-19T15:05:00;102450.0;;;25.9;24.5
67345;BME280;54230;52.402;6.276;2023-05-19T15:10:00;102450.0;;;25.5;24.8
67345;BME280;54230;52.402;6.276;2023-05-19T15:15:00;102450.0;;;25.5;25.2
67345;BME280;54230;52.402;6.276;2023-05-19T15:20:00;102440.00000000001;;;26.1;23.8
67345;BME280;54230;52.402;6.276;2023-05-19T15:25:00;102440.00000000001;;;26.6;23.6
67345;BME280;54230;52.402;6.276;2023-05-19T15:30:00;102440.00000000001;;;26.3;24.3
67345;BME280;54230;52.402;6.276;2023-05-19T15:35:00;102440.00000000001;;;25.6;24.8
67345;BME280;54230;52.402;6.276;2023-05-19T15:40:00;102450.0;;;25.5;25.2
67345;BME280;54230;52.402;6.276;2023-05-19T15:45:00;102450.0;;;25.8;25.2
67345;BME280;54230;52.402;6.276;2023-05-19T15:50:00;102440.00000000001;;;26.2;24.3
67345;BME280;54230;52.402;6.276;2023-05-19T15:55:00;102430.0;;;26.3;23.4
67345;BME280;54230;52.402;6.276;2023-05-19T16:00:00;102430.0;;;27.0;22.6
67345;BME280;54230;52.402;6.276;2023-05-19T16:05:00;102440.00000000001;;;27.5;23.2
67345;BME280;54230;52.402;6.276;2023-05-19T16:10:00;102440.00000000001;;;26.7;24.1
67345;BME280;54230;52.402;6.276;2023-05-19T16:15:00;102440.00000000001;;;26.0;25.3
67345;BME280;54230;52.402;6.276;2023-05-19T16:20:00;102430.0;;;25.7;25.9
67345;BME280;54230;52.402;6.276;2023-05-19T16:25:00;102420.0;;;26.2;25.3
67345;BME280;54230;52.402;6.276;2023-05-19T16:30:00;102430.0;;;26.6;24.6
67345;BME280;54230;52.402;6.276;2023-05-19T16:35:00;102420.0;;;26.3;24.4
67345;BME280;54230;52.402;6.276;2023-05-19T16:40:00;102420.0;;;25.5;25.4
67345;BME280;54230;52.402;6.276;2023-05-19T16:45:00;102430.0;;;24.8;26.4
67345;BME280;54230;52.402;6.276;2023-05-19T16:50:00;102430.0;;;25.0;26.7
67345;BME280;54230;52.402;6.276;2023-05-19T16:55:00;102430.0;;;25.3;26.5
67345;BME280;54230;52.402;6.276;2023-05-19T17:00:00;102430.0;;;25.6;25.7
67345;BME280;54230;52.402;6.276;2023-05-19T17:05:00;102430.0;;;25.7;25.5
67345;BME280;54230;52.402;6.276;2023-05-19T17:10:00;102430.0;;;25.7;25.8
67345;BME280;54230;52.402;6.276;2023-05-19T17:15:00;102430.0;;;25.8;25.2
67345;BME280;54230;52.402;6.276;2023-05-19T17:20:00;102420.0;;;25.5;25.6
67345;BME280;54230;52.402;6.276;2023-05-19T17:25:00;102430.0;;;25.2;26.0
67345;BME280;54230;52.402;6.276;2023-05-19T17:30:00;102440.00000000001;;;24.8;26.8
67345;BME280;54230;52.402;6.276;2023-05-19T17:35:00;102440.00000000001;;;24.4;27.7
67345;BME280;54230;52.402;6.276;2023-05-19T17:40:01;102450.0;;;23.9;28.4
67345;BME280;54230;52.402;6.276;2023-05-19T17:45:00;102440.00000000001;;;23.5;28.5
67345;BME280;54230;52.402;6.276;2023-05-19T17:50:00;102440.00000000001;;;23.2;29.3
67345;BME280;54230;52.402;6.276;2023-05-19T17:55:01;102440.00000000001;;;22.9;30.0
67345;BME280;54230;52.402;6.276;2023-05-19T18:00:00;102440.00000000001;;;23.0;30.2
67345;BME280;54230;52.402;6.276;2023-05-19T18:05:00;102440.00000000001;;;22.7;29.9
67345;BME280;54230;52.402;6.276;2023-05-19T18:10:01;102440.00000000001;;;22.6;30.9
67345;BME280;54230;52.402;6.276;2023-05-19T18:15:00;102450.0;;;22.4;30.7
67345;BME280;54230;52.402;6.276;2023-05-19T18:20:00;102440.00000000001;;;22.2;31.7
67345;BME280;54230;52.402;6.276;2023-05-19T18:25:00;102440.00000000001;;;22.0;32.0
67345;BME280;54230;52.402;6.276;2023-05-19T18:30:00;102450.0;;;21.8;32.1
67345;BME280;54230;52.402;6.276;2023-05-19T18:35:00;102450.0;;;21.6;32.8
67345;BME280;54230;52.402;6.276;2023-05-19T18:40:00;102450.0;;;21.4;33.5
67345;BME280;54230;52.402;6.276;2023-05-19T18:45:00;102450.0;;;21.1;33.3
67345;BME280;54230;52.402;6.276;2023-05-19T18:50:00;102450.0;;;20.9;34.0
67345;BME280;54230;52.402;6.276;2023-05-19T18:55:00;102459.99999999999;;;20.8;34.2
67345;BME280;54230;52.402;6.276;2023-05-19T19:00:00;102470.0;;;20.7;35.0
67345;BME280;54230;52.402;6.276;2023-05-19T19:05:01;102470.0;;;20.4;35.6
67345;BME280;54230;52.402;6.276;2023-05-19T19:10:00;102470.0;;;20.1;36.2
67345;BME280;54230;52.402;6.276;2023-05-19T19:15:00;102480.0;;;19.9;36.6
67345;BME280;54230;52.402;6.276;2023-05-19T19:20:00;102480.0;;;19.7;36.8
67345;BME280;54230;52.402;6.276;2023-05-19T19:25:00;102480.0;;;19.5;36.9
67345;BME280;54230;52.402;6.276;2023-05-19T19:30:00;102490.00000000001;;;19.4;36.9
67345;BME280;54230;52.402;6.276;2023-05-19T19:35:00;102480.0;;;19.2;37.5
67345;BME280;54230;52.402;6.276;2023-05-19T19:40:00;102490.00000000001;;;19.0;37.8
67345;BME280;54230;52.402;6.276;2023-05-19T19:45:00;102509.99999999999;;;18.7;38.2
67345;BME280;54230;52.402;6.276;2023-05-19T19:50:00;102509.99999999999;;;18.5;38.8
67345;BME280;54230;52.402;6.276;2023-05-19T19:55:00;102520.0;;;18.3;40.6
67345;BME280;54230;52.402;6.276;2023-05-19T20:00:00;102530.0;;;18.2;42.0
67345;BME280;54230;52.402;6.276;2023-05-19T20:05:00;102530.0;;;18.1;43.4
67345;BME280;54230;52.402;6.276;2023-05-19T20:10:00;102530.0;;;18.0;44.5
67345;BME280;54230;52.402;6.276;2023-05-19T20:15:00;102540.00000000001;;;18.0;45.0
67345;BME280;54230;52.402;6.276;2023-05-19T20:20:00;102540.00000000001;;;17.8;45.9
67345;BME280;54230;52.402;6.276;2023-05-19T20:25:00;102550.0;;;17.7;46.5
67345;BME280;54230;52.402;6.276;2023-05-19T20:30:00;102550.0;;;17.6;47.0
67345;BME280;54230;52.402;6.276;2023-05-19T20:35:00;102550.0;;;17.5;47.5
67345;BME280;54230;52.402;6.276;2023-05-19T20:40:00;102540.00000000001;;;17.2;47.8
67345;BME280;54230;52.402;6.276;2023-05-19T20:45:00;102550.0;;;17.2;48.3
67345;BME280;54230;52.402;6.276;2023-05-19T20:50:00;102550.0;;;17.1;48.6
67345;BME280;54230;52.402;6.276;2023-05-19T20:55:00;102550.0;;;17.0;48.9
67345;BME280;54230;52.402;6.276;2023-05-19T21:00:00;102550.0;;;16.9;49.1
67345;BME280;54230;52.402;6.276;2023-05-19T21:05:00;102550.0;;;16.9;50.2
67345;BME280;54230;52.402;6.276;2023-05-19T21:10:00;102559.99999999999;;;17.0;50.1
67345;BME280;54230;52.402;6.276;2023-05-19T21:15:00;102570.0;;;16.9;49.9
67345;BME280;54230;52.402;6.276;2023-05-19T21:20:00;102570.0;;;16.8;50.0
67345;BME280;54230;52.402;6.276;2023-05-19T21:25:00;102580.0;;;16.7;49.7
67345;BME280;54230;52.402;6.276;2023-05-19T21:30:00;102570.0;;;16.6;49.9
67345;BME280;54230;52.402;6.276;2023-05-19T21:35:00;102580.0;;;16.4;50.3
67345;BME280;54230;52.402;6.276;2023-05-19T21:40:00;102580.0;;;16.3;50.5
67345;BME280;54230;52.402;6.276;2023-05-19T21:45:00;102580.0;;;16.2;50.4
67345;BME280;54230;52.402;6.276;2023-05-19T21:50:00;102580.0;;;16.1;50.6
67345;BME280;54230;52.402;6.276;2023-05-19T21:55:00;102580.0;;;16.0;50.7
67345;BME280;54230;52.402;6.276;2023-05-19T22:00:00;102590.00000000001;;;16.0;50.9
67345;BME280;54230;52.402;6.276;2023-05-19T22:05:00;102590.00000000001;;;15.9;51.1
67345;BME280;54230;52.402;6.276;2023-05-19T22:10:00;102570.0;;;15.8;51.4
67345;BME280;54230;52.402;6.276;2023-05-19T22:15:00;102570.0;;;15.7;51.7
67345;BME280;54230;52.402;6.276;2023-05-19T22:20:00;102580.0;;;15.5;52.3
67345;BME280;54230;52.402;6.276;2023-05-19T22:25:01;102570.0;;;15.6;52.3
67345;BME280;54230;52.402;6.276;2023-05-19T22:30:00;102570.0;;;15.4;52.6
67345;BME280;54230;52.402;6.276;2023-05-19T22:35:00;102570.0;;;15.4;52.9
67345;BME280;54230;52.402;6.276;2023-05-19T22:40:00;102570.0;;;15.2;53.4
67345;BME280;54230;52.402;6.276;2023-05-19T22:45:00;102570.0;;;15.1;54.0
67345;BME280;54230;52.402;6.276;2023-05-19T22:50:00;102570.0;;;15.0;54.4
67345;BME280;54230;52.402;6.276;2023-05-19T22:55:00;102570.0;;;15.0;54.7
67345;BME280;54230;52.402;6.276;2023-05-19T23:00:00;102570.0;;;14.9;55.0
67345;BME280;54230;52.402;6.276;2023-05-19T23:05:00;102570.0;;;14.9;55.1
67345;BME280;54230;52.402;6.276;2023-05-19T23:10:00;102570.0;;;14.9;55.4
67345;BME280;54230;52.402;6.276;2023-05-19T23:15:00;102580.0;;;14.7;56.0
67345;BME280;54230;52.402;6.276;2023-05-19T23:20:00;102580.0;;;14.6;56.5
67345;BME280;54230;52.402;6.276;2023-05-19T23:25:00;102580.0;;;14.6;56.7
67345;BME280;54230;52.402;6.276;2023-05-19T23:30:01;102580.0;;;14.5;57.0
67345;BME280;54230;52.402;6.276;2023-05-19T23:35:08;102570.0;;;14.4;57.2
67345;BME280;54230;52.402;6.276;2023-05-19T23:40:00;102570.0;;;14.4;57.7
67345;BME280;54230;52.402;6.276;2023-05-19T23:45:00;102570.0;;;14.5;57.9
67345;BME280;54230;52.402;6.276;2023-05-19T23:50:00;102570.0;;;14.5;58.3
67345;BME280;54230;52.402;6.276;2023-05-19T23:55:00;102570.0;;;14.6;58.0
